Wednesday, June 20, 2018, 10:43 PM GMT
Back to Local

CXMY, Malay Falls , N. S.

Location: , , Canada Lat: 44.983
Local Time: 10:43 PM GMT (22:43 GMT) Lon: -62.483
Time Zone: GMT Elev: 131 ft

Show me the last for .
Show Coded

Time T Td Feel RH Dir Speed Gust Alt SLP Vis Weather Sky Remarks
2018-06-20 22:00 71 49 76 45 - - - - - 0 None
2018-06-20 21:00 76 47 - 35 - - - - - 0 None
2018-06-20 20:00 76 50 - 39 - - - - - 0 None
2018-06-20 19:00 76 49 - 37 - - - - - 0 None
2018-06-20 18:00 77 52 78 41 - - - - - 0 None
2018-06-20 17:00 78 49 - 36 - - - - - 0 None
2018-06-20 16:00 76 47 - 35 - - - - - 0 1-hr Precip Total: 0.02"
2018-06-20 15:00 74 49 76 41 - - - - - 0 None
2018-06-20 14:00 70 47 - 44 - - - - - 0 None
2018-06-20 13:00 68 47 - 48 - - - - - 0 None
2018-06-20 12:00 64 50 - 61 - - - - - 0 None
2018-06-20 11:00 60 49 - 66 - - - - - 0 None
2018-06-20 10:00 54 48 - 80 - - - - - 0 None
2018-06-20 09:00 43 43 - 98 - - - - - 0 None
2018-06-20 08:00 43 42 - 96 - - - - - 0 None
2018-06-20 07:00 46 44 - 93 - - - - - 0 None
2018-06-20 06:00 47 45 - 92 - - - - - 0 None
2018-06-20 05:00 49 47 - 90 - - - - - 0 None
2018-06-20 04:00 54 47 - 78 - - - - - 0 None
2018-06-20 03:00 56 48 - 74 - - - - - 0 None
2018-06-20 02:00 59 49 - 71 - - - - - 0 None
2018-06-20 01:00 59 50 - 70 - - - - - 0 None
2018-06-20 00:00 61 51 - 70 - - - - - 0 None
2018-06-19 23:00 64 49 - 57 - - - - - 0 None

Support USWX by starting your Amazon purchase here.